Time;durP1;ratioP1;P1;durP2;ratioP2;P2;SDS_P1;SDS_P2;PMS_P1;PMS_P2;Temp;Humidity;BMP_temperature;BMP_pressure;BME280_temperature;BME280_humidity;BME280_pressure;Samples;Min_cycle;Max_cycle;Signal;HPM_P1;HPM_P2
2021/08/18 00:00:46;;;;;;;3.40;1.77;;;25.70;50.30;;;;;;5030412;28;20022;-68
2021/08/18 00:03:12;;;;;;;4.10;1.88;;;25.60;51.30;;;;;;5024020;28;20045;-68
2021/08/18 00:05:39;;;;;;;4.53;1.70;;;25.60;51.10;;;;;;5028890;28;20081;-68
2021/08/18 00:08:06;;;;;;;4.15;1.90;;;25.70;50.90;;;;;;5024149;28;20418;-68
2021/08/18 00:10:32;;;;;;;4.28;1.63;;;25.60;50.80;;;;;;5028932;28;20096;-68
2021/08/18 00:12:58;;;;;;;5.25;2.40;;;25.50;51.20;;;;;;5017510;28;20042;-68
2021/08/18 00:15:25;;;;;;;3.90;2.10;;;25.60;51.50;;;;;;5013700;28;20480;-66
2021/08/18 00:17:51;;;;;;;4.90;1.98;;;25.60;51.50;;;;;;5004627;28;20048;-68
2021/08/18 00:20:17;;;;;;;4.38;2.05;;;25.60;51.60;;;;;;5007287;28;20050;-68
2021/08/18 00:22:44;;;;;;;4.50;1.67;;;25.50;51.40;;;;;;5003895;28;20506;-68
2021/08/18 00:25:10;;;;;;;2.72;2.20;;;25.50;51.70;;;;;;5009717;28;20042;-68
2021/08/18 00:27:36;;;;;;;3.63;1.85;;;25.50;52.10;;;;;;5022036;28;20073;-68
2021/08/18 00:30:02;;;;;;;2.53;1.50;;;25.50;51.50;;;;;;5029401;28;20056;-68
2021/08/18 00:32:28;;;;;;;4.53;2.05;;;25.40;51.60;;;;;;5022514;28;20033;-69
2021/08/18 00:34:53;;;;;;;3.20;1.45;;;25.40;51.80;;;;;;5006849;28;20506;-62
2021/08/18 00:37:19;;;;;;;3.65;1.67;;;25.40;52.20;;;;;;5008960;28;20048;-68
2021/08/18 00:39:44;;;;;;;3.75;1.80;;;25.40;52.30;;;;;;5005345;28;20104;-69
2021/08/18 00:42:10;;;;;;;3.00;1.70;;;25.40;52.10;;;;;;5019809;28;20073;-68
2021/08/18 00:44:36;;;;;;;4.38;1.75;;;25.40;52.00;;;;;;5005802;28;20099;-68
2021/08/18 00:47:05;;;;;;;1.73;1.60;;;25.30;52.30;;;;;;5027910;28;20053;-68
2021/08/18 00:49:30;;;;;;;2.22;1.70;;;25.20;52.40;;;;;;5022874;28;20037;-68
2021/08/18 00:52:01;;;;;;;3.85;1.80;;;25.20;52.50;;;;;;5028072;28;20088;-67
2021/08/18 00:54:26;;;;;;;5.30;1.48;;;25.20;52.60;;;;;;5021885;28;20045;-68
2021/08/18 00:56:53;;;;;;;3.90;1.90;;;25.20;52.50;;;;;;5029961;28;20060;-68
2021/08/18 00:59:19;;;;;;;3.70;1.92;;;25.30;52.90;;;;;;5022092;28;20068;-68
2021/08/18 01:01:45;;;;;;;2.72;2.03;;;25.20;52.30;;;;;;5006877;28;20030;-68
2021/08/18 01:04:12;;;;;;;3.05;1.40;;;25.20;53.10;;;;;;5020225;28;20037;-68
2021/08/18 01:06:40;;;;;;;2.60;1.58;;;25.20;52.90;;;;;;5012152;28;20037;-68
2021/08/18 01:09:11;;;;;;;2.60;1.42;;;25.10;52.70;;;;;;5014888;28;20056;-68
2021/08/18 01:11:42;;;;;;;2.03;1.45;;;25.10;53.00;;;;;;5028591;28;20091;-68
2021/08/18 01:14:08;;;;;;;2.97;1.80;;;25.20;52.60;;;;;;5012206;28;20048;-68
2021/08/18 01:16:39;;;;;;;2.70;1.70;;;25.30;52.90;;;;;;5014272;28;20111;-68
2021/08/18 01:19:06;;;;;;;3.15;1.60;;;25.10;53.10;;;;;;5006123;28;20052;-68
2021/08/18 01:21:36;;;;;;;2.38;1.63;;;25.10;52.80;;;;;;5005784;28;20044;-68
2021/08/18 01:24:02;;;;;;;3.17;1.98;;;25.00;52.90;;;;;;5016732;28;20112;-68
2021/08/18 01:26:29;;;;;;;1.88;1.48;;;25.00;53.00;;;;;;5009526;28;20046;-67
2021/08/18 01:28:56;;;;;;;3.78;1.80;;;25.10;52.90;;;;;;5024620;28;20108;-67
2021/08/18 01:31:21;;;;;;;1.85;1.60;;;25.10;52.80;;;;;;5005548;28;20108;-68
2021/08/18 01:33:47;;;;;;;3.90;1.95;;;25.10;53.20;;;;;;5012466;28;20550;-68
2021/08/18 01:36:13;;;;;;;4.32;1.70;;;25.20;52.70;;;;;;5006270;28;20083;-68
2021/08/18 01:38:38;;;;;;;1.73;1.42;;;25.10;52.50;;;;;;5009224;28;20050;-68
2021/08/18 01:41:04;;;;;;;4.32;1.83;;;25.20;52.60;;;;;;5013575;28;20056;-68
2021/08/18 01:43:30;;;;;;;1.70;1.30;;;25.10;52.60;;;;;;5021723;28;20079;-67
2021/08/18 01:45:55;;;;;;;2.42;1.80;;;25.10;52.40;;;;;;5022967;28;20045;-67
2021/08/18 01:48:24;;;;;;;1.58;1.48;;;25.10;52.50;;;;;;5026991;28;20526;-68
2021/08/18 01:50:53;;;;;;;2.55;1.52;;;25.10;52.20;;;;;;5023638;28;20637;-68
2021/08/18 01:53:46;;;;;;;2.72;1.10;;;25.10;52.00;;;;;;5025533;28;20088;-68
2021/08/18 01:56:14;;;;;;;3.10;1.52;;;24.90;52.50;;;;;;4971981;28;20034;-68
2021/08/18 01:58:40;;;;;;;2.20;1.70;;;25.00;52.10;;;;;;5011842;28;20050;-68
2021/08/18 02:01:08;;;;;;;2.83;1.65;;;25.00;52.00;;;;;;5007811;28;20938;-68
2021/08/18 02:03:34;;;;;;;1.40;1.30;;;25.00;52.20;;;;;;5018818;28;20499;-67
2021/08/18 02:06:00;;;;;;;4.53;1.38;;;24.90;52.20;;;;;;5012362;28;20175;-68
2021/08/18 02:08:26;;;;;;;2.92;1.52;;;25.00;51.80;;;;;;4998568;28;20117;-68
2021/08/18 02:10:51;;;;;;;2.28;1.40;;;24.90;52.00;;;;;;5008644;28;20514;-67
2021/08/18 02:13:17;;;;;;;2.75;1.42;;;25.00;51.60;;;;;;5008185;28;20041;-67
2021/08/18 02:15:43;;;;;;;2.35;1.80;;;24.90;51.70;;;;;;5023077;28;20044;-67
2021/08/18 02:18:10;;;;;;;2.47;1.40;;;24.90;51.60;;;;;;5022694;28;20049;-67
2021/08/18 02:20:37;;;;;;;3.78;1.48;;;24.90;52.00;;;;;;5027136;28;20129;-67
2021/08/18 02:23:04;;;;;;;4.20;1.73;;;24.90;52.00;;;;;;5021864;28;20045;-67
2021/08/18 02:25:30;;;;;;;2.78;1.63;;;24.80;52.20;;;;;;5010054;28;20034;-67
2021/08/18 02:27:56;;;;;;;3.30;1.70;;;24.90;52.20;;;;;;5017102;28;20030;-67
2021/08/18 02:30:25;;;;;;;4.65;1.65;;;24.70;52.30;;;;;;5027421;28;20124;-67
2021/08/18 02:32:51;;;;;;;2.97;1.60;;;24.70;52.60;;;;;;5018984;28;20037;-68
2021/08/18 02:35:17;;;;;;;4.97;1.50;;;24.80;52.40;;;;;;5016354;28;20034;-67
2021/08/18 02:37:44;;;;;;;2.17;1.23;;;24.80;52.30;;;;;;5004367;28;20053;-67
2021/08/18 02:40:11;;;;;;;2.83;1.67;;;24.80;52.30;;;;;;5028671;28;20043;-67
2021/08/18 02:42:37;;;;;;;3.33;1.48;;;24.90;53.20;;;;;;5022307;28;20029;-67
2021/08/18 02:45:04;;;;;;;3.78;1.35;;;24.80;52.70;;;;;;5028654;28;20160;-67
2021/08/18 02:47:30;;;;;;;2.88;1.58;;;24.80;52.50;;;;;;5029804;28;20030;-67
2021/08/18 02:49:56;;;;;;;3.17;1.52;;;24.80;52.70;;;;;;5009184;28;20083;-67
2021/08/18 02:52:21;;;;;;;2.30;1.30;;;24.70;52.60;;;;;;5025502;28;20033;-67
2021/08/18 02:54:47;;;;;;;2.78;1.35;;;24.70;52.90;;;;;;5004458;28;20099;-67
2021/08/18 02:57:13;;;;;;;5.22;1.58;;;24.70;53.50;;;;;;5013214;28;20068;-67
2021/08/18 02:59:38;;;;;;;2.33;1.60;;;24.70;53.10;;;;;;5023983;28;20056;-67
2021/08/18 03:02:04;;;;;;;1.92;1.60;;;24.70;53.10;;;;;;5028642;28;20435;-67
2021/08/18 03:04:30;;;;;;;2.67;1.30;;;24.70;53.30;;;;;;5024813;28;20044;-67
2021/08/18 03:06:57;;;;;;;2.78;1.90;;;24.60;53.20;;;;;;5030160;28;20045;-66
2021/08/18 03:09:23;;;;;;;2.05;1.30;;;24.60;53.40;;;;;;5014002;28;20041;-67
2021/08/18 03:11:50;;;;;;;2.72;1.67;;;24.60;53.50;;;;;;5014882;28;20064;-67
2021/08/18 03:14:16;;;;;;;3.88;1.63;;;24.60;53.70;;;;;;5022433;28;20033;-67
2021/08/18 03:16:42;;;;;;;3.88;1.60;;;24.60;53.50;;;;;;5024864;28;20054;-67
2021/08/18 03:19:07;;;;;;;3.35;1.60;;;24.60;53.60;;;;;;5022470;28;20724;-67
2021/08/18 03:21:33;;;;;;;5.22;1.40;;;24.50;53.90;;;;;;5030368;28;20033;-67
2021/08/18 03:23:59;;;;;;;2.33;1.40;;;24.60;54.00;;;;;;5024639;28;20052;-67
2021/08/18 03:26:24;;;;;;;1.77;1.40;;;24.50;53.60;;;;;;5021160;28;20454;-66
2021/08/18 03:28:50;;;;;;;1.85;1.45;;;24.60;53.70;;;;;;5021788;28;20042;-67
2021/08/18 03:31:16;;;;;;;2.15;1.50;;;24.60;53.60;;;;;;5014068;28;20045;-68
2021/08/18 03:33:41;;;;;;;1.73;1.40;;;24.50;53.60;;;;;;5015256;28;20041;-67
2021/08/18 03:36:07;;;;;;;2.92;1.48;;;24.40;53.60;;;;;;5012302;28;20574;-67
2021/08/18 03:38:32;;;;;;;2.72;1.52;;;24.40;53.90;;;;;;5012061;28;20046;-66
2021/08/18 03:40:58;;;;;;;2.65;1.38;;;24.50;53.70;;;;;;5006729;28;20079;-66
2021/08/18 03:43:24;;;;;;;4.28;1.20;;;24.40;53.80;;;;;;5006634;28;20107;-67
2021/08/18 03:45:49;;;;;;;2.92;1.38;;;24.30;54.20;;;;;;5014680;28;20088;-67
2021/08/18 03:48:15;;;;;;;2.50;1.67;;;24.40;54.00;;;;;;5008611;28;20037;-67
2021/08/18 03:50:40;;;;;;;3.08;1.00;;;24.50;53.80;;;;;;5009676;28;20049;-67
2021/08/18 03:53:06;;;;;;;5.88;2.03;;;24.40;54.00;;;;;;5005613;28;20030;-67
2021/08/18 03:55:32;;;;;;;2.78;1.67;;;24.40;53.70;;;;;;5021404;28;20609;-66
2021/08/18 03:57:58;;;;;;;2.28;1.40;;;24.40;53.70;;;;;;5029580;28;20140;-67
2021/08/18 04:00:24;;;;;;;1.48;1.10;;;24.20;53.20;;;;;;5022699;28;20115;-67
2021/08/18 04:02:49;;;;;;;2.05;1.35;;;24.20;53.70;;;;;;5012606;28;20388;-67
2021/08/18 04:05:15;;;;;;;1.33;1.20;;;24.20;53.50;;;;;;5006341;28;20523;-67
2021/08/18 04:07:41;;;;;;;3.25;1.33;;;24.20;53.20;;;;;;5005986;28;20128;-67
2021/08/18 04:10:09;;;;;;;1.42;1.33;;;24.20;52.80;;;;;;5028364;28;20482;-67
2021/08/18 04:12:58;;;;;;;1.25;1.15;;;24.30;52.80;;;;;;5014935;28;20034;-66
2021/08/18 04:15:26;;;;;;;2.85;1.40;;;24.10;52.70;;;;;;4999935;28;20487;-68
2021/08/18 04:17:52;;;;;;;1.30;1.13;;;24.20;53.10;;;;;;5016671;28;20114;-68
2021/08/18 04:20:19;;;;;;;3.25;1.23;;;24.00;52.90;;;;;;5022510;28;20049;-67
2021/08/18 04:22:46;;;;;;;2.67;1.58;;;24.00;53.10;;;;;;5010133;28;20049;-67
2021/08/18 04:25:14;;;;;;;2.28;1.52;;;24.00;52.90;;;;;;5026467;28;20625;-67
2021/08/18 04:27:40;;;;;;;2.50;1.20;;;23.90;53.10;;;;;;5005482;28;20041;-67
2021/08/18 04:30:08;;;;;;;3.10;1.35;;;24.00;52.60;;;;;;5015625;28;20041;-67
2021/08/18 04:32:34;;;;;;;3.28;1.30;;;24.00;53.20;;;;;;5024627;28;20039;-67
2021/08/18 04:35:00;;;;;;;4.38;1.88;;;24.00;52.70;;;;;;5031534;28;20606;-67
2021/08/18 04:37:26;;;;;;;4.57;1.08;;;24.00;52.60;;;;;;5023281;28;20407;-66
2021/08/18 04:39:52;;;;;;;2.67;1.33;;;24.00;52.20;;;;;;5030298;28;20037;-67
2021/08/18 04:42:17;;;;;;;2.22;1.40;;;24.00;52.50;;;;;;5023321;28;20060;-67
2021/08/18 04:44:43;;;;;;;4.50;1.75;;;23.90;52.40;;;;;;5026429;28;20025;-67
2021/08/18 04:47:08;;;;;;;1.88;1.60;;;24.00;52.50;;;;;;5029296;28;20549;-67
2021/08/18 04:49:34;;;;;;;3.55;1.50;;;23.90;52.30;;;;;;5017716;28;20478;-67
2021/08/18 04:52:00;;;;;;;1.88;0.95;;;23.90;52.10;;;;;;5029024;28;20030;-66
2021/08/18 04:54:25;;;;;;;2.13;1.42;;;23.80;51.80;;;;;;5023683;28;20072;-66
2021/08/18 04:56:51;;;;;;;1.38;1.08;;;23.80;51.70;;;;;;5029051;28;20052;-67
2021/08/18 04:59:16;;;;;;;1.60;1.10;;;23.90;51.70;;;;;;5022511;28;20041;-67
2021/08/18 05:01:42;;;;;;;2.10;1.42;;;23.90;51.20;;;;;;5011915;28;20121;-67
2021/08/18 05:04:07;;;;;;;2.08;1.40;;;23.90;51.20;;;;;;5011531;28;20052;-67
2021/08/18 05:06:34;;;;;;;1.67;1.20;;;23.80;50.80;;;;;;5022291;28;20617;-67
2021/08/18 05:09:00;;;;;;;3.05;1.67;;;23.80;51.20;;;;;;5022829;28;20052;-65
2021/08/18 05:11:25;;;;;;;1.67;1.20;;;23.90;51.30;;;;;;5028349;28;20036;-66
2021/08/18 05:13:51;;;;;;;6.10;1.90;;;23.80;50.90;;;;;;5003401;28;20810;-67
2021/08/18 05:16:17;;;;;;;1.17;0.90;;;23.80;51.10;;;;;;5022066;28;20041;-67
2021/08/18 05:18:42;;;;;;;3.75;1.85;;;23.90;51.30;;;;;;5021993;28;20033;-67
2021/08/18 05:21:08;;;;;;;1.45;1.05;;;23.90;51.50;;;;;;5026129;28;20535;-67
2021/08/18 05:23:34;;;;;;;3.45;1.27;;;23.90;51.50;;;;;;5024621;28;20483;-66
2021/08/18 05:26:00;;;;;;;2.28;1.52;;;23.90;51.60;;;;;;5004347;28;20061;-66
2021/08/18 05:28:26;;;;;;;3.13;1.50;;;23.80;51.50;;;;;;5020573;28;20053;-66
2021/08/18 05:30:51;;;;;;;1.65;1.45;;;23.80;52.00;;;;;;5014345;28;20061;-67
2021/08/18 05:33:17;;;;;;;3.50;1.58;;;23.70;52.20;;;;;;5013073;28;20037;-67
2021/08/18 05:35:43;;;;;;;2.08;1.48;;;23.60;52.50;;;;;;5013875;28;20123;-66
2021/08/18 05:38:08;;;;;;;3.80;1.70;;;23.70;52.40;;;;;;5028028;28;20049;-67
2021/08/18 05:40:34;;;;;;;1.17;0.98;;;23.60;52.10;;;;;;5023542;28;20060;-66
2021/08/18 05:43:00;;;;;;;2.03;1.20;;;23.80;52.50;;;;;;5017871;28;20049;-66
2021/08/18 05:45:25;;;;;;;2.28;1.30;;;23.70;52.40;;;;;;5004430;28;20034;-66
2021/08/18 05:47:51;;;;;;;2.78;1.60;;;23.70;52.40;;;;;;5010744;28;20052;-66
2021/08/18 05:50:17;;;;;;;3.20;1.40;;;23.60;52.90;;;;;;5021513;28;20034;-67
2021/08/18 05:52:42;;;;;;;3.17;1.90;;;23.60;52.90;;;;;;5030335;28;20029;-67
2021/08/18 05:55:09;;;;;;;3.40;1.45;;;23.70;52.70;;;;;;5022515;28;20041;-67
2021/08/18 05:57:35;;;;;;;2.05;1.45;;;23.50;53.40;;;;;;5015671;28;20424;-67
2021/08/18 06:00:01;;;;;;;4.80;1.63;;;23.60;53.20;;;;;;5011409;28;20068;-66
2021/08/18 06:02:26;;;;;;;4.90;1.35;;;23.60;53.30;;;;;;5007333;28;20030;-66
2021/08/18 06:04:52;;;;;;;3.33;1.92;;;23.70;53.10;;;;;;5009391;28;20487;-67
2021/08/18 06:07:18;;;;;;;4.20;1.20;;;23.70;53.70;;;;;;5003001;28;20034;-67
2021/08/18 06:09:43;;;;;;;2.45;1.52;;;23.80;53.50;;;;;;5011863;28;20500;-67
2021/08/18 06:12:09;;;;;;;1.73;1.35;;;23.70;53.00;;;;;;5019640;28;20080;-67
2021/08/18 06:14:35;;;;;;;4.53;1.67;;;23.60;53.00;;;;;;5008946;28;20041;-66
2021/08/18 06:17:01;;;;;;;4.15;1.40;;;23.60;53.20;;;;;;5009767;28;20129;-66
2021/08/18 06:19:26;;;;;;;3.70;1.60;;;23.70;53.20;;;;;;5000096;28;20034;-66
2021/08/18 06:21:52;;;;;;;2.97;1.50;;;23.60;53.20;;;;;;5024096;28;20605;-67
2021/08/18 06:24:40;;;;;;;2.65;1.33;;;23.60;53.50;;;;;;5014196;28;20038;-67
2021/08/18 06:27:07;;;;;;;4.07;1.70;;;23.70;53.40;;;;;;4988384;28;20125;-66
2021/08/18 06:29:34;;;;;;;1.95;1.45;;;23.80;53.40;;;;;;5008703;28;20030;-66
2021/08/18 06:32:01;;;;;;;3.72;1.50;;;23.80;53.60;;;;;;5007755;28;20048;-67
2021/08/18 06:34:26;;;;;;;4.07;1.33;;;23.80;53.20;;;;;;5024030;28;20065;-66
2021/08/18 06:36:52;;;;;;;3.25;1.52;;;23.90;53.00;;;;;;5014522;28;20073;-67
2021/08/18 06:39:18;;;;;;;2.38;1.20;;;23.80;52.50;;;;;;5028513;28;20046;-67
2021/08/18 06:41:43;;;;;;;3.10;1.52;;;24.00;52.20;;;;;;5031345;28;20049;-67
2021/08/18 06:44:09;;;;;;;2.15;1.50;;;24.00;51.60;;;;;;5027175;28;20034;-67
2021/08/18 06:46:34;;;;;;;2.05;1.20;;;23.90;51.50;;;;;;5030900;28;20040;-67
2021/08/18 06:49:00;;;;;;;4.78;1.83;;;23.80;50.60;;;;;;5024017;28;20034;-67
2021/08/18 06:51:25;;;;;;;3.25;1.73;;;23.90;51.00;;;;;;5010213;28;20045;-66
2021/08/18 06:53:51;;;;;;;2.55;1.42;;;24.00;51.10;;;;;;5025115;28;20463;-67
2021/08/18 06:56:17;;;;;;;3.05;1.60;;;23.90;51.30;;;;;;5023215;28;20046;-67
2021/08/18 06:58:42;;;;;;;1.83;1.40;;;24.00;51.20;;;;;;5025507;28;20092;-67
2021/08/18 07:01:08;;;;;;;3.65;1.92;;;24.00;50.80;;;;;;5027702;28;20339;-67
2021/08/18 07:03:33;;;;;;;4.88;1.98;;;24.00;50.90;;;;;;5025484;28;20033;-66
2021/08/18 07:06:00;;;;;;;3.17;1.92;;;24.00;50.50;;;;;;5004846;28;20053;-66
2021/08/18 07:08:25;;;;;;;4.38;1.70;;;24.00;50.50;;;;;;5008657;28;20062;-67
2021/08/18 07:10:53;;;;;;;3.17;1.90;;;24.20;50.50;;;;;;5029335;28;20057;-66
2021/08/18 07:13:19;;;;;;;7.15;2.78;;;24.20;50.50;;;;;;5025622;28;20573;-67
2021/08/18 07:15:45;;;;;;;2.97;1.38;;;24.20;49.90;;;;;;5031438;28;20045;-67
2021/08/18 07:18:11;;;;;;;3.10;1.60;;;24.10;50.10;;;;;;5027613;28;20091;-66
2021/08/18 07:20:36;;;;;;;2.28;1.35;;;24.10;50.60;;;;;;5015255;28;20053;-66
2021/08/18 07:23:02;;;;;;;5.57;1.80;;;24.30;50.20;;;;;;5020918;28;20132;-66
2021/08/18 07:25:28;;;;;;;3.85;1.40;;;24.20;49.80;;;;;;5004074;28;20049;-65
2021/08/18 07:27:53;;;;;;;2.03;1.45;;;24.30;49.70;;;;;;5033024;28;20041;-67
2021/08/18 07:30:19;;;;;;;4.40;1.70;;;24.30;50.00;;;;;;5021843;28;20672;-67
2021/08/18 07:32:44;;;;;;;2.53;1.40;;;24.20;50.00;;;;;;5029665;28;20038;-67
2021/08/18 07:35:10;;;;;;;2.47;2.22;;;24.30;49.60;;;;;;5025380;28;20091;-67
2021/08/18 07:37:37;;;;;;;4.00;1.50;;;24.30;49.50;;;;;;5030183;28;20053;-67
2021/08/18 07:40:03;;;;;;;3.75;1.63;;;24.30;49.80;;;;;;5025182;28;20099;-67
2021/08/18 07:42:29;;;;;;;2.15;1.48;;;24.30;49.80;;;;;;5029502;28;20128;-66
2021/08/18 07:44:55;;;;;;;2.20;1.55;;;24.30;49.60;;;;;;5012283;28;20121;-67
2021/08/18 07:47:20;;;;;;;4.05;1.80;;;24.30;49.60;;;;;;5024813;28;20490;-67
2021/08/18 07:49:46;;;;;;;3.65;1.73;;;24.30;49.50;;;;;;5023058;28;20051;-67
2021/08/18 07:52:12;;;;;;;2.78;1.90;;;24.40;49.20;;;;;;5027151;28;20045;-66
2021/08/18 07:54:37;;;;;;;2.13;1.60;;;24.60;49.30;;;;;;5024269;28;20044;-67
2021/08/18 07:57:03;;;;;;;2.25;1.60;;;24.50;49.10;;;;;;5026781;28;20045;-67
2021/08/18 07:59:29;;;;;;;3.03;1.27;;;24.60;49.00;;;;;;5028994;28;20095;-66
2021/08/18 08:01:54;;;;;;;3.40;1.52;;;24.70;48.60;;;;;;5021573;28;20053;-67
2021/08/18 08:04:20;;;;;;;1.92;1.60;;;24.80;48.10;;;;;;5020006;28;20384;-67
2021/08/18 08:06:46;;;;;;;1.67;1.45;;;24.80;48.30;;;;;;5006766;28;20034;-67
2021/08/18 08:09:11;;;;;;;5.05;1.70;;;24.80;48.50;;;;;;5010836;28;20037;-67
2021/08/18 08:11:37;;;;;;;2.88;1.83;;;24.90;48.80;;;;;;5019273;28;20045;-67
2021/08/18 08:14:03;;;;;;;2.55;1.70;;;24.90;48.60;;;;;;5016707;28;20053;-67
2021/08/18 08:16:29;;;;;;;1.92;1.67;;;24.90;48.60;;;;;;5006858;28;20385;-66
2021/08/18 08:18:55;;;;;;;2.80;1.55;;;24.80;48.40;;;;;;5013714;28;20038;-67
2021/08/18 08:21:21;;;;;;;5.00;1.75;;;24.90;48.40;;;;;;5020382;28;20037;-68
2021/08/18 08:23:46;;;;;;;5.97;1.95;;;24.90;48.40;;;;;;5028577;28;20091;-67
2021/08/18 08:26:12;;;;;;;3.30;1.50;;;25.00;48.50;;;;;;5022479;28;20037;-67
2021/08/18 08:28:37;;;;;;;2.60;1.67;;;25.00;48.60;;;;;;5029390;28;20037;-66
2021/08/18 08:31:03;;;;;;;1.80;1.63;;;25.00;48.50;;;;;;5013873;28;20049;-68
2021/08/18 08:33:29;;;;;;;2.28;1.98;;;25.10;48.30;;;;;;5008293;28;20463;-66
2021/08/18 08:35:55;;;;;;;3.28;1.92;;;25.20;48.70;;;;;;5011685;28;20049;-67
2021/08/18 08:38:21;;;;;;;6.40;2.03;;;25.30;48.60;;;;;;5006255;28;20049;-67
2021/08/18 08:40:47;;;;;;;2.00;1.80;;;25.20;48.40;;;;;;4998727;28;20034;-67
2021/08/18 08:43:14;;;;;;;4.50;2.03;;;25.20;49.40;;;;;;5006090;28;20096;-67
2021/08/18 08:45:46;;;;;;;2.90;1.50;;;25.20;48.90;;;;;;5008664;28;20030;-67
2021/08/18 08:48:15;;;;;;;2.53;1.70;;;25.40;49.50;;;;;;5003509;28;20558;-67
2021/08/18 08:50:41;;;;;;;4.53;2.00;;;25.50;49.30;;;;;;5021887;28;20045;-67
2021/08/18 08:53:06;;;;;;;5.00;1.90;;;25.50;49.00;;;;;;5022760;28;20041;-67
2021/08/18 08:55:32;;;;;;;4.05;1.85;;;25.50;48.90;;;;;;5028363;28;20052;-67
2021/08/18 08:57:57;;;;;;;5.43;1.90;;;25.60;49.00;;;;;;5019315;28;20050;-65
2021/08/18 09:00:25;;;;;;;2.78;1.70;;;25.50;49.10;;;;;;5022800;28;20124;-67
2021/08/18 09:03:15;;;;;;;4.18;2.00;;;25.60;49.40;;;;;;5005958;28;20056;-67
2021/08/18 09:05:41;;;;;;;3.90;2.10;;;25.70;49.20;;;;;;5001771;28;20033;-67
2021/08/18 09:08:16;;;;;;;4.70;1.70;;;25.70;49.10;;;;;;5023276;28;20049;-67
2021/08/18 09:11:02;;;;;;;2.63;2.03;;;25.80;49.50;;;;;;5020003;28;20137;-67
2021/08/18 09:13:57;;;;;;;6.05;2.10;;;25.80;49.50;;;;;;5029988;28;20177;-67
2021/08/18 09:16:33;;;;;;;4.38;1.85;;;25.90;49.90;;;;;;4980612;28;20044;-67
2021/08/18 09:18:59;;;;;;;5.50;1.80;;;25.90;49.30;;;;;;5015997;28;20095;-66
2021/08/18 09:21:30;;;;;;;3.40;1.83;;;25.80;49.00;;;;;;5003959;28;20034;-67
2021/08/18 09:24:11;;;;;;;2.88;2.00;;;25.90;49.00;;;;;;5004748;28;20030;-67
2021/08/18 09:26:38;;;;;;;5.57;1.80;;;26.00;49.80;;;;;;4993540;28;20561;-67
2021/08/18 09:29:04;;;;;;;6.95;1.90;;;26.10;49.00;;;;;;5014756;28;20038;-67
2021/08/18 09:31:29;;;;;;;4.80;2.33;;;26.10;49.00;;;;;;5003286;28;20038;-66
2021/08/18 09:33:56;;;;;;;3.42;2.10;;;26.20;48.80;;;;;;5006508;28;20468;-66
2021/08/18 09:36:26;;;;;;;4.13;2.10;;;26.30;48.90;;;;;;5015280;28;20025;-67
2021/08/18 09:39:37;;;;;;;3.22;2.10;;;26.30;49.30;;;;;;5021162;28;20407;-67
2021/08/18 09:42:03;;;;;;;4.60;2.25;;;26.30;49.10;;;;;;4972290;28;20061;-67
2021/08/18 09:44:28;;;;;;;5.13;2.13;;;26.30;49.10;;;;;;5023249;28;20127;-65
2021/08/18 09:47:06;;;;;;;3.45;1.85;;;26.40;49.50;;;;;;5017437;28;20091;-67
2021/08/18 09:49:33;;;;;;;5.28;2.33;;;26.50;50.10;;;;;;5002857;28;20061;-67
2021/08/18 09:51:59;;;;;;;5.38;2.50;;;26.40;49.70;;;;;;5011172;28;20491;-65
2021/08/18 09:54:36;;;;;;;5.28;2.40;;;26.50;49.40;;;;;;5022229;28;20033;-67
2021/08/18 09:57:07;;;;;;;3.67;2.40;;;26.50;49.30;;;;;;5021529;28;20038;-67
2021/08/18 09:59:33;;;;;;;3.33;2.20;;;26.50;49.40;;;;;;5008203;28;20050;-67
2021/08/18 10:01:59;;;;;;;4.22;2.10;;;26.70;49.30;;;;;;5004848;28;20045;-66
2021/08/18 10:04:25;;;;;;;2.72;1.98;;;26.80;49.10;;;;;;5027960;28;20040;-67
2021/08/18 10:06:51;;;;;;;3.47;2.25;;;27.00;48.80;;;;;;5018491;28;20041;-68
2021/08/18 10:09:17;;;;;;;3.67;2.35;;;26.90;48.90;;;;;;5024407;28;20060;-67
2021/08/18 10:11:43;;;;;;;3.78;2.05;;;27.00;48.80;;;;;;5020549;28;20107;-67
2021/08/18 10:14:09;;;;;;;2.55;1.73;;;27.00;48.80;;;;;;5027368;28;20404;-67
2021/08/18 10:16:34;;;;;;;5.03;2.38;;;27.10;48.90;;;;;;5022491;28;20040;-67
2021/08/18 10:19:05;;;;;;;2.80;2.00;;;27.00;48.80;;;;;;5026756;28;20045;-67
2021/08/18 10:21:32;;;;;;;4.68;2.63;;;27.10;48.40;;;;;;5021541;28;20034;-66
2021/08/18 10:24:03;;;;;;;5.13;2.53;;;27.20;47.90;;;;;;5026690;28;20095;-67
2021/08/18 10:26:32;;;;;;;10.95;2.95;;;27.00;48.30;;;;;;5017958;28;20597;-66
2021/08/18 10:29:06;;;;;;;3.28;1.77;;;27.30;47.90;;;;;;5028366;28;20033;-68
2021/08/18 10:31:43;;;;;;;3.25;2.08;;;27.20;47.30;;;;;;5022968;28;20491;-67
2021/08/18 10:34:31;;;;;;;4.90;2.42;;;27.40;47.70;;;;;;5028797;28;21437;-67
2021/08/18 10:36:56;;;;;;;5.05;1.80;;;27.50;46.70;;;;;;5019601;28;20440;-67
2021/08/18 10:39:22;;;;;;;3.17;1.88;;;27.60;47.10;;;;;;5008633;28;20125;-67
2021/08/18 10:42:17;;;;;;;2.45;1.90;;;27.70;47.10;;;;;;5017227;28;20122;-67
2021/08/18 10:44:53;;;;;;;2.65;2.05;;;27.90;47.30;;;;;;4992171;28;20050;-67
2021/08/18 10:47:33;;;;;;;8.00;1.98;;;27.80;46.70;;;;;;5019383;28;20041;-67
2021/08/18 10:50:12;;;;;;;3.72;2.05;;;28.00;46.70;;;;;;5009764;28;20038;-62
2021/08/18 10:52:40;;;;;;;4.18;2.05;;;28.20;45.80;;;;;;5001816;28;20108;-67
2021/08/18 10:55:06;;;;;;;4.47;2.63;;;28.30;45.30;;;;;;5010644;28;20041;-67
2021/08/18 10:57:50;;;;;;;3.88;2.20;;;28.40;45.30;;;;;;5000351;28;20065;-67
2021/08/18 11:00:22;;;;;;;3.70;1.90;;;28.40;45.90;;;;;;5010769;28;20046;-67
2021/08/18 11:03:05;;;;;;;5.82;2.38;;;28.80;45.10;;;;;;5019590;28;20045;-67
2021/08/18 11:05:43;;;;;;;6.80;2.60;;;29.20;44.60;;;;;;5013325;28;20052;-67
2021/08/18 11:08:14;;;;;;;3.05;1.98;;;29.30;44.20;;;;;;5020870;28;20080;-67
2021/08/18 11:10:54;;;;;;;2.45;2.05;;;29.50;43.20;;;;;;5020017;28;20546;-67
2021/08/18 11:13:35;;;;;;;5.18;2.05;;;29.50;42.70;;;;;;5007460;28;20036;-67
2021/08/18 11:16:08;;;;;;;3.15;1.60;;;29.20;42.00;;;;;;5025623;28;20042;-67
2021/08/18 11:18:34;;;;;;;3.38;1.98;;;29.30;41.90;;;;;;5026733;28;20133;-67
2021/08/18 11:21:01;;;;;;;2.70;2.35;;;29.10;42.20;;;;;;5029048;28;20068;-67
2021/08/18 11:23:28;;;;;;;3.60;2.08;;;28.90;42.70;;;;;;5019335;28;20042;-67
2021/08/18 11:25:58;;;;;;;4.25;2.50;;;28.90;42.80;;;;;;5011563;28;20041;-67
2021/08/18 11:28:25;;;;;;;4.65;2.20;;;29.30;41.60;;;;;;5026869;28;20156;-67
2021/08/18 11:31:00;;;;;;;2.97;1.85;;;29.60;40.90;;;;;;5028628;28;20041;-67
2021/08/18 11:33:27;;;;;;;4.03;2.10;;;29.20;40.30;;;;;;5009755;28;20034;-67
2021/08/18 11:35:53;;;;;;;4.88;2.35;;;29.40;40.40;;;;;;5010054;28;20113;-67
2021/08/18 11:38:19;;;;;;;5.18;2.17;;;29.80;39.80;;;;;;5024699;28;20132;-67
2021/08/18 11:40:54;;;;;;;4.07;2.45;;;31.40;36.10;;;;;;5017164;28;20041;-65
2021/08/18 11:43:37;;;;;;;5.95;2.80;;;32.00;31.60;;;;;;5027296;28;20064;-66
2021/08/18 11:46:02;;;;;;;3.63;2.30;;;32.60;29.40;;;;;;5021777;28;20029;-64
2021/08/18 11:48:28;;;;;;;3.05;2.50;;;32.30;30.70;;;;;;5017771;28;20386;-67
2021/08/18 11:50:57;;;;;;;4.57;2.90;;;33.20;28.40;;;;;;5005003;28;20116;-67
2021/08/18 11:53:23;;;;;;;5.95;2.60;;;33.90;27.50;;;;;;5019673;28;20033;-67
2021/08/18 11:56:00;;;;;;;3.13;2.75;;;34.40;26.80;;;;;;5007182;28;20045;-67
2021/08/18 11:58:35;;;;;;;2.90;2.65;;;35.40;24.80;;;;;;5016048;28;20515;-68
2021/08/18 12:01:03;;;;;;;4.10;2.75;;;35.60;24.10;;;;;;5022295;28;20065;-67
2021/08/18 12:03:30;;;;;;;3.40;2.65;;;36.70;23.60;;;;;;5030457;28;20040;-65
2021/08/18 12:06:04;;;;;;;4.78;2.55;;;37.40;22.80;;;;;;5013575;28;20034;-65
2021/08/18 12:08:41;;;;;;;5.97;3.15;;;37.10;23.30;;;;;;5019540;28;20033;-66
2021/08/18 12:11:07;;;;;;;4.82;3.13;;;38.60;22.70;;;;;;4987983;28;20468;-66
2021/08/18 12:13:41;;;;;;;3.13;2.50;;;40.80;19.70;;;;;;5024141;28;20083;-66
2021/08/18 12:16:24;;;;;;;4.20;2.33;;;43.20;17.90;;;;;;5022975;28;20033;-66
2021/08/18 12:18:51;;;;;;;3.85;2.75;;;43.30;16.00;;;;;;5022046;28;20054;-67
2021/08/18 12:21:27;;;;;;;5.28;2.53;;;44.20;15.90;;;;;;5006463;28;20172;-66
2021/08/18 12:23:55;;;;;;;3.10;2.80;;;43.50;14.90;;;;;;5029210;28;20037;-67
2021/08/18 12:26:33;;;;;;;4.63;2.70;;;44.30;15.70;;;;;;5025295;28;20040;-66
2021/08/18 12:29:01;;;;;;;4.78;3.03;;;43.20;15.10;;;;;;5030231;28;20044;-67
2021/08/18 12:31:47;;;;;;;4.47;2.70;;;41.40;16.50;;;;;;5025245;28;20052;-67
2021/08/18 12:34:12;;;;;;;4.70;2.80;;;40.90;16.50;;;;;;5010919;28;20075;-67
2021/08/18 12:36:38;;;;;;;4.35;2.97;;;42.10;16.40;;;;;;5024716;28;20548;-66
2021/08/18 12:39:05;;;;;;;5.20;3.20;;;41.10;15.80;;;;;;5011715;28;20049;-66
2021/08/18 12:41:33;;;;;;;6.55;2.90;;;40.40;16.30;;;;;;5012070;28;20403;-67
2021/08/18 12:44:14;;;;;;;3.80;3.20;;;40.10;16.70;;;;;;5005764;28;20515;-67
2021/08/18 12:46:43;;;;;;;4.32;3.10;;;39.60;15.90;;;;;;4978643;28;20052;-67
2021/08/18 12:49:29;;;;;;;6.22;3.05;;;40.00;16.00;;;;;;5030581;28;20455;-66
2021/08/18 12:51:57;;;;;;;5.85;3.38;;;41.50;14.80;;;;;;5021488;28;20029;-67